createdAt,value
2019-02-10T00:01:36.854Z,5.40
2019-02-10T00:04:04.355Z,5.40
2019-02-10T00:06:31.846Z,5.40
2019-02-10T00:08:59.309Z,5.40
2019-02-10T00:11:26.978Z,5.40
2019-02-10T00:13:55.366Z,5.40
2019-02-10T00:16:22.933Z,5.40
2019-02-10T00:18:50.437Z,5.30
2019-02-10T00:21:17.913Z,5.30
2019-02-10T00:23:45.355Z,5.30
2019-02-10T00:26:13.142Z,5.20
2019-02-10T00:28:40.633Z,5.20
2019-02-10T00:31:08.112Z,5.10
2019-02-10T00:33:36.714Z,5.10
2019-02-10T00:36:04.179Z,5.10
2019-02-10T00:38:31.869Z,5.10
2019-02-10T00:40:59.400Z,5.00
2019-02-10T00:43:27.116Z,5.00
2019-02-10T00:45:54.627Z,5.00
2019-02-10T00:48:21.945Z,4.90
2019-02-10T00:50:49.379Z,4.90
2019-02-10T00:53:16.885Z,4.80
2019-02-10T00:55:44.367Z,4.80
2019-02-10T00:58:11.873Z,4.90
2019-02-10T01:00:39.413Z,4.80
2019-02-10T01:03:06.886Z,4.80
2019-02-10T01:05:34.257Z,4.80
2019-02-10T01:08:01.734Z,4.80
2019-02-10T01:10:29.243Z,4.80
2019-02-10T01:12:56.777Z,4.80
2019-02-10T01:15:24.263Z,4.70
2019-02-10T01:17:51.719Z,4.70
2019-02-10T01:20:19.567Z,4.70
2019-02-10T01:22:47.126Z,4.70
2019-02-10T01:25:14.504Z,4.70
2019-02-10T01:27:42.280Z,4.60
2019-02-10T01:30:11.212Z,4.60
2019-02-10T01:32:39.086Z,4.60
2019-02-10T01:35:07.064Z,4.60
2019-02-10T01:37:34.534Z,4.60
2019-02-10T01:40:02.057Z,4.60
2019-02-10T01:42:30.032Z,4.60
2019-02-10T01:44:57.667Z,4.60
2019-02-10T01:47:25.634Z,4.50
2019-02-10T01:49:53.095Z,4.60
2019-02-10T01:52:20.562Z,4.60
2019-02-10T01:54:48.062Z,4.60
2019-02-10T01:57:15.624Z,4.60
2019-02-10T01:59:43.029Z,4.60
2019-02-10T02:02:10.390Z,4.70
2019-02-10T02:04:37.828Z,4.70
2019-02-10T02:07:05.346Z,4.80
2019-02-10T02:09:32.788Z,4.90
2019-02-10T02:12:00.269Z,4.90
2019-02-10T02:14:27.731Z,4.90
2019-02-10T02:16:55.172Z,5.00
2019-02-10T02:19:22.671Z,5.00
2019-02-10T02:21:50.021Z,5.00
2019-02-10T02:24:17.341Z,5.10
2019-02-10T02:26:44.822Z,5.10
2019-02-10T02:29:12.161Z,5.10
2019-02-10T02:31:39.680Z,5.10
2019-02-10T02:34:07.164Z,5.10
2019-02-10T02:36:41.226Z,5.10
2019-02-10T02:39:08.847Z,5.20
2019-02-10T02:41:36.406Z,5.10
2019-02-10T02:44:03.919Z,5.10
2019-02-10T02:46:31.353Z,5.10
2019-02-10T02:48:58.841Z,5.10
2019-02-10T02:51:26.299Z,5.10
2019-02-10T02:53:53.771Z,5.00
2019-02-10T02:56:21.246Z,5.00
2019-02-10T02:58:48.719Z,5.00
2019-02-10T03:01:16.327Z,5.00
2019-02-10T03:03:43.826Z,5.00
2019-02-10T03:06:11.436Z,4.90
2019-02-10T03:08:38.915Z,4.90
2019-02-10T03:11:06.409Z,5.00
2019-02-10T03:13:33.909Z,5.00
2019-02-10T03:16:01.381Z,5.00
2019-02-10T03:18:28.855Z,5.00
2019-02-10T03:20:56.334Z,5.00
2019-02-10T03:23:23.827Z,5.00
2019-02-10T03:25:51.401Z,5.10
2019-02-10T03:28:18.773Z,5.10
2019-02-10T03:30:46.287Z,5.10
2019-02-10T03:33:13.925Z,5.10
2019-02-10T03:35:41.469Z,5.20
2019-02-10T03:38:08.926Z,5.20
2019-02-10T03:40:36.519Z,5.20
2019-02-10T03:43:03.949Z,5.30
2019-02-10T03:45:31.551Z,5.30
2019-02-10T03:47:59.104Z,5.30
2019-02-10T03:50:26.436Z,5.30
2019-02-10T03:52:54.277Z,5.40
2019-02-10T03:55:21.774Z,5.40
2019-02-10T03:57:49.247Z,5.40
2019-02-10T04:00:17.096Z,5.40
2019-02-10T04:02:44.625Z,5.40
2019-02-10T04:05:12.106Z,5.40
2019-02-10T04:07:39.545Z,5.40
2019-02-10T04:10:07.897Z,5.50
2019-02-10T04:12:35.450Z,5.50
2019-02-10T04:15:03.890Z,5.60
2019-02-10T04:17:31.402Z,5.60
2019-02-10T04:19:58.985Z,5.60
2019-02-10T04:22:26.456Z,5.60
2019-02-10T04:24:53.960Z,5.70
2019-02-10T04:27:21.401Z,5.70
2019-02-10T04:29:48.958Z,5.70
2019-02-10T04:32:16.560Z,5.80
2019-02-10T04:34:44.144Z,5.80
2019-02-10T04:37:11.625Z,5.80
2019-02-10T04:39:39.116Z,5.80
2019-02-10T04:42:06.488Z,5.90
2019-02-10T04:44:33.983Z,5.90
2019-02-10T04:47:01.500Z,6.00
2019-02-10T04:49:29.042Z,6.00
2019-02-10T04:51:56.573Z,6.00
2019-02-10T04:54:24.034Z,6.00
2019-02-10T04:56:51.515Z,6.00
2019-02-10T04:59:18.947Z,6.00
2019-02-10T05:01:46.463Z,6.10
2019-02-10T05:04:13.790Z,6.10
2019-02-10T05:06:41.330Z,6.10
2019-02-10T05:09:08.819Z,6.20
2019-02-10T05:11:36.179Z,6.20
2019-02-10T05:14:03.701Z,6.20
2019-02-10T05:16:31.187Z,6.20
2019-02-10T05:18:58.750Z,6.20
2019-02-10T05:21:26.338Z,6.20
2019-02-10T05:24:02.796Z,6.20
2019-02-10T05:26:23.264Z,6.20
2019-02-10T05:28:50.860Z,6.20
2019-02-10T05:31:18.363Z,6.20
2019-02-10T05:33:45.812Z,6.20
2019-02-10T05:36:13.283Z,6.20
2019-02-10T05:38:40.797Z,6.20
2019-02-10T05:41:08.215Z,6.10
2019-02-10T05:43:36.924Z,6.20
2019-02-10T05:46:04.489Z,6.20
2019-02-10T05:48:32.418Z,6.20
2019-02-10T05:50:59.961Z,6.20
2019-02-10T05:53:27.462Z,6.20
2019-02-10T05:55:55.022Z,6.20
2019-02-10T05:58:22.442Z,6.20
2019-02-10T06:00:50.098Z,6.20
2019-02-10T06:03:17.577Z,6.20
2019-02-10T06:05:45.322Z,6.20
2019-02-10T06:08:13.738Z,6.10
2019-02-10T06:10:41.371Z,6.10
2019-02-10T06:13:08.865Z,6.10
2019-02-10T06:15:36.600Z,6.10
2019-02-10T06:18:04.039Z,6.00
2019-02-10T06:20:31.523Z,6.00
2019-02-10T06:22:59.012Z,6.00
2019-02-10T06:25:26.551Z,6.00
2019-02-10T06:27:54.115Z,6.00
2019-02-10T06:30:21.621Z,6.00
2019-02-10T06:32:49.116Z,5.90
2019-02-10T06:35:16.538Z,5.90
2019-02-10T06:37:43.907Z,5.90
2019-02-10T06:40:11.417Z,5.90
2019-02-10T06:42:38.915Z,6.00
2019-02-10T06:45:08.990Z,6.00
2019-02-10T06:47:36.816Z,6.00
2019-02-10T06:50:04.988Z,6.00
2019-02-10T06:52:32.479Z,6.00
2019-02-10T06:54:59.947Z,6.00
2019-02-10T06:57:27.426Z,6.00
2019-02-10T06:59:59.699Z,6.00
2019-02-10T07:02:40.442Z,6.00
2019-02-10T07:05:09.422Z,6.10
2019-02-10T07:07:36.925Z,6.10
2019-02-10T07:10:05.104Z,6.10
2019-02-10T07:12:49.339Z,6.10
2019-02-10T07:15:57.437Z,6.20
2019-02-10T07:19:02.118Z,6.20
2019-02-10T07:21:35.827Z,6.20
2019-02-10T07:24:47.002Z,6.30
2019-02-10T07:27:26.279Z,6.30
2019-02-10T07:30:30.684Z,6.40
2019-02-10T07:32:58.179Z,6.40
2019-02-10T07:35:53.795Z,6.40
2019-02-10T07:38:59.375Z,6.50
2019-02-10T07:42:32.987Z,6.60
2019-02-10T07:45:42.309Z,6.60
2019-02-10T07:48:35.794Z,6.60
2019-02-10T07:51:53.661Z,6.70
2019-02-10T07:54:53.432Z,6.80
2019-02-10T07:58:05.378Z,6.80
2019-02-10T08:00:49.642Z,6.90
2019-02-10T08:03:37.407Z,6.90
2019-02-10T08:06:24.171Z,6.90
2019-02-10T08:09:29.375Z,7.00
2019-02-10T08:12:13.241Z,7.10
2019-02-10T08:15:28.655Z,7.10
2019-02-10T08:18:29.027Z,7.10
2019-02-10T08:21:38.400Z,7.20
2019-02-10T08:25:00.041Z,7.20
2019-02-10T08:27:42.172Z,7.30
2019-02-10T08:30:41.747Z,7.40
2019-02-10T08:33:45.479Z,7.50
2019-02-10T08:36:29.483Z,7.60
2019-02-10T08:39:40.923Z,7.60
2019-02-10T08:42:17.950Z,7.60
2019-02-10T08:45:20.326Z,7.70
2019-02-10T08:48:27.015Z,7.80
2019-02-10T08:51:32.055Z,7.80
2019-02-10T08:53:59.607Z,7.80
2019-02-10T08:56:27.082Z,7.80
2019-02-10T08:58:54.583Z,7.80
2019-02-10T09:01:21.970Z,7.80
2019-02-10T09:03:49.368Z,7.70
2019-02-10T09:06:16.739Z,7.80
2019-02-10T09:08:44.250Z,7.70
2019-02-10T09:11:11.756Z,7.80
2019-02-10T09:13:39.302Z,7.80
2019-02-10T09:16:06.852Z,7.80
2019-02-10T09:18:34.351Z,7.80
2019-02-10T09:21:01.863Z,7.80
2019-02-10T09:23:29.348Z,7.80
2019-02-10T09:25:56.885Z,7.90
2019-02-10T09:28:24.445Z,7.90
2019-02-10T09:30:52.009Z,7.90
2019-02-10T09:33:19.721Z,8.00
2019-02-10T09:35:47.143Z,8.00
2019-02-10T09:38:14.694Z,8.10
2019-02-10T09:40:42.061Z,8.20
2019-02-10T09:43:09.720Z,8.20
2019-02-10T09:45:37.514Z,8.30
2019-02-10T09:48:05.292Z,8.30
2019-02-10T09:50:32.662Z,8.40
2019-02-10T09:53:00.309Z,8.50
2019-02-10T09:55:27.839Z,8.50
2019-02-10T09:57:55.890Z,8.60
2019-02-10T10:00:23.495Z,8.70
2019-02-10T10:02:51.011Z,8.80
2019-02-10T10:05:19.843Z,8.90
2019-02-10T10:07:47.365Z,9.00
2019-02-10T10:10:14.849Z,9.10
2019-02-10T10:12:42.328Z,9.20
2019-02-10T10:15:11.662Z,9.30
2019-02-10T10:17:39.272Z,9.40
2019-02-10T10:20:09.864Z,9.60
2019-02-10T10:22:37.851Z,9.60
2019-02-10T10:25:05.767Z,9.70
2019-02-10T10:27:33.249Z,9.80
2019-02-10T10:30:01.110Z,9.80
2019-02-10T10:32:28.628Z,9.90
2019-02-10T10:34:56.150Z,10.00
2019-02-10T10:37:23.662Z,10.10
2019-02-10T10:39:51.238Z,10.20
2019-02-10T10:42:19.038Z,10.20
2019-02-10T10:44:46.527Z,10.30
2019-02-10T10:47:14.076Z,10.40
2019-02-10T10:49:42.731Z,10.50
2019-02-10T10:52:10.872Z,10.50
2019-02-10T10:54:42.895Z,10.70
2019-02-10T10:57:07.801Z,10.80
2019-02-10T10:59:35.260Z,10.80
2019-02-10T11:02:02.701Z,10.90
2019-02-10T11:04:30.232Z,10.90
2019-02-10T11:06:57.794Z,10.90
2019-02-10T11:09:25.307Z,10.90
2019-02-10T11:11:53.228Z,10.90
2019-02-10T11:14:20.759Z,11.00
2019-02-10T11:16:48.366Z,11.00
2019-02-10T11:19:15.968Z,11.10
2019-02-10T11:21:43.505Z,11.20
2019-02-10T11:24:11.014Z,11.20
2019-02-10T11:26:38.581Z,11.30
2019-02-10T11:29:06.146Z,11.30
2019-02-10T11:31:53.135Z,11.30
2019-02-10T11:34:20.621Z,11.40
2019-02-10T11:36:48.515Z,11.40
2019-02-10T11:39:15.967Z,11.50
2019-02-10T11:41:43.437Z,11.50
2019-02-10T11:44:10.955Z,11.60
2019-02-10T11:46:38.403Z,11.70
2019-02-10T11:49:05.898Z,11.80
2019-02-10T11:51:33.642Z,11.80
2019-02-10T11:54:04.879Z,11.80
2019-02-10T11:56:32.507Z,11.90
2019-02-10T11:59:00.005Z,11.90
2019-02-10T12:01:27.478Z,12.00
2019-02-10T12:03:54.957Z,12.00
2019-02-10T12:06:22.435Z,12.00
2019-02-10T12:08:49.789Z,11.90
2019-02-10T12:11:17.362Z,12.00
2019-02-10T12:13:44.888Z,12.00
2019-02-10T12:16:12.427Z,12.00
2019-02-10T12:18:39.939Z,11.90
2019-02-10T12:21:08.352Z,11.90
2019-02-10T12:23:35.870Z,11.90
2019-02-10T12:26:03.308Z,11.90
2019-02-10T12:28:30.991Z,11.90
2019-02-10T12:30:58.527Z,11.90
2019-02-10T12:33:26.047Z,11.90
2019-02-10T12:35:58.427Z,11.80
2019-02-10T12:38:22.750Z,11.80
2019-02-10T12:40:50.224Z,11.80
2019-02-10T12:43:17.722Z,11.70
2019-02-10T12:45:45.199Z,11.60
2019-02-10T12:48:12.667Z,11.60
2019-02-10T12:50:40.153Z,11.50
2019-02-10T12:53:07.651Z,11.40
2019-02-10T12:55:35.031Z,11.30
2019-02-10T12:58:02.453Z,11.20
2019-02-10T13:00:29.895Z,10.90
2019-02-10T13:02:57.271Z,10.70
2019-02-10T13:05:24.762Z,10.60
2019-02-10T13:07:52.135Z,10.40
2019-02-10T13:10:19.606Z,10.30
2019-02-10T13:12:47.056Z,10.10
2019-02-10T13:15:14.444Z,10.00
2019-02-10T13:17:41.908Z,9.80
2019-02-10T13:20:09.617Z,9.60
2019-02-10T13:22:37.005Z,9.60
2019-02-10T13:25:04.725Z,9.50
2019-02-10T13:27:32.226Z,9.40
2019-02-10T13:29:59.550Z,9.30
2019-02-10T13:32:27.057Z,9.20
2019-02-10T13:34:54.552Z,9.20
2019-02-10T13:37:22.152Z,9.20
2019-02-10T13:39:49.967Z,9.10
2019-02-10T13:42:17.501Z,9.10
2019-02-10T13:44:45.001Z,9.00
2019-02-10T13:47:12.370Z,9.00
2019-02-10T13:49:39.864Z,9.00
2019-02-10T13:52:07.317Z,9.00
2019-02-10T13:54:35.017Z,8.90
2019-02-10T13:57:02.464Z,8.90
2019-02-10T13:59:29.819Z,8.80
2019-02-10T14:01:57.312Z,8.80
2019-02-10T14:04:24.814Z,8.80
2019-02-10T14:06:52.307Z,8.70
2019-02-10T14:09:19.686Z,8.70
2019-02-10T14:11:47.242Z,8.70
2019-02-10T14:14:14.815Z,8.60
2019-02-10T14:16:42.293Z,8.60
2019-02-10T14:19:09.807Z,8.60
2019-02-10T14:21:37.603Z,8.50
2019-02-10T14:24:05.081Z,8.50
2019-02-10T14:26:32.597Z,8.50
2019-02-10T14:29:00.235Z,8.50
2019-02-10T14:31:27.696Z,8.50
2019-02-10T14:33:55.163Z,8.50
2019-02-10T14:36:22.616Z,8.40
2019-02-10T14:38:50.107Z,8.40
2019-02-10T14:41:17.603Z,8.40
2019-02-10T14:43:45.071Z,8.40
2019-02-10T14:46:12.835Z,8.40
2019-02-10T14:48:40.407Z,8.40
2019-02-10T14:51:07.881Z,8.30
2019-02-10T14:53:35.357Z,8.30
2019-02-10T14:56:02.758Z,8.30
2019-02-10T14:58:30.299Z,8.20
2019-02-10T15:00:57.811Z,8.20
2019-02-10T15:03:25.304Z,8.20
2019-02-10T15:05:52.628Z,8.20
2019-02-10T15:08:20.115Z,8.20
2019-02-10T15:10:47.600Z,8.20
2019-02-10T15:13:15.345Z,8.10
2019-02-10T15:15:42.865Z,8.00
2019-02-10T15:18:10.334Z,8.10
2019-02-10T15:20:37.841Z,8.00
2019-02-10T15:23:05.480Z,8.00
2019-02-10T15:25:33.107Z,8.00
2019-02-10T15:28:00.582Z,8.00
2019-02-10T15:30:27.914Z,8.00
2019-02-10T15:32:57.118Z,8.00
2019-02-10T15:35:26.110Z,7.90
2019-02-10T15:37:55.028Z,7.80
2019-02-10T15:40:22.397Z,7.80
2019-02-10T15:42:49.866Z,7.80
2019-02-10T15:45:17.362Z,7.80
2019-02-10T15:47:44.814Z,7.80
2019-02-10T15:50:13.362Z,7.80
2019-02-10T15:52:40.841Z,7.70
2019-02-10T15:55:09.090Z,7.70
2019-02-10T15:57:36.573Z,7.70
2019-02-10T16:00:06.394Z,7.70
2019-02-10T16:02:34.419Z,7.70
2019-02-10T16:05:01.893Z,7.70
2019-02-10T16:07:29.551Z,7.70
2019-02-10T16:09:57.007Z,7.70
2019-02-10T16:12:24.521Z,7.70
2019-02-10T16:14:52.027Z,7.70
2019-02-10T16:17:19.529Z,7.60
2019-02-10T16:19:47.287Z,7.60
2019-02-10T16:22:14.831Z,7.50
2019-02-10T16:24:42.440Z,7.50
2019-02-10T16:27:09.894Z,7.50
2019-02-10T16:29:37.401Z,7.50
2019-02-10T16:32:04.870Z,7.40
2019-02-10T16:34:32.368Z,7.40
2019-02-10T16:37:00.269Z,7.40
2019-02-10T16:39:28.664Z,7.30
2019-02-10T16:41:56.421Z,7.30
2019-02-10T16:44:23.973Z,7.30
2019-02-10T16:46:51.450Z,7.30
2019-02-10T16:49:18.925Z,7.30
2019-02-10T16:51:46.526Z,7.30
2019-02-10T16:54:14.039Z,7.20
2019-02-10T16:56:41.581Z,7.10
2019-02-10T16:59:09.041Z,7.10
2019-02-10T17:01:36.528Z,7.10
2019-02-10T17:04:04.053Z,7.10
2019-02-10T17:06:31.629Z,7.00
2019-02-10T17:08:59.139Z,7.00
2019-02-10T17:11:26.775Z,7.00
2019-02-10T17:13:54.274Z,7.00
2019-02-10T17:16:21.769Z,7.00
2019-02-10T17:18:49.193Z,6.90
2019-02-10T17:21:16.522Z,7.00
2019-02-10T17:23:43.996Z,7.00
2019-02-10T17:26:11.467Z,6.90
2019-02-10T17:28:39.038Z,6.90
2019-02-10T17:31:06.649Z,6.80
2019-02-10T17:33:34.062Z,6.60
2019-02-10T17:36:01.855Z,6.50
2019-02-10T17:38:29.320Z,6.40
2019-02-10T17:41:08.162Z,6.40
2019-02-10T17:43:35.524Z,6.20
2019-02-10T17:46:03.397Z,6.10
2019-02-10T17:48:30.832Z,6.10
2019-02-10T17:50:58.192Z,6.00
2019-02-10T17:53:25.692Z,5.90
2019-02-10T17:55:53.523Z,5.80
2019-02-10T17:58:20.965Z,5.70
2019-02-10T18:00:49.109Z,5.60
2019-02-10T18:03:18.376Z,5.60
2019-02-10T18:05:45.936Z,5.60
2019-02-10T18:08:13.464Z,5.50
2019-02-10T18:10:40.943Z,5.50
2019-02-10T18:13:10.319Z,5.40
2019-02-10T18:15:55.879Z,5.40
2019-02-10T18:18:41.671Z,5.40
2019-02-10T18:21:33.320Z,5.40
2019-02-10T18:24:27.373Z,5.30
2019-02-10T18:27:26.204Z,5.20
2019-02-10T18:30:19.455Z,5.20
2019-02-10T18:32:59.167Z,5.20
2019-02-10T18:35:44.736Z,5.10
2019-02-10T18:38:30.348Z,5.10
2019-02-10T18:41:16.160Z,5.00
2019-02-10T18:44:03.601Z,5.00
2019-02-10T18:46:39.701Z,5.00
2019-02-10T18:49:15.668Z,4.90
2019-02-10T18:52:14.835Z,4.90
2019-02-10T18:54:52.369Z,4.90
2019-02-10T18:57:42.709Z,4.90
2019-02-10T19:00:28.430Z,4.90
2019-02-10T19:03:08.331Z,4.90
2019-02-10T19:05:41.788Z,5.00
2019-02-10T19:08:37.915Z,4.90
2019-02-10T19:11:34.406Z,4.90
2019-02-10T19:14:27.354Z,4.90
2019-02-10T19:17:04.707Z,4.90
2019-02-10T19:19:51.653Z,4.90
2019-02-10T19:22:37.359Z,4.90
2019-02-10T19:25:25.460Z,4.90
2019-02-10T19:28:06.392Z,4.90
2019-02-10T19:30:56.541Z,4.90
2019-02-10T19:33:40.141Z,4.90
2019-02-10T19:36:22.311Z,4.80
2019-02-10T19:39:12.143Z,4.80
2019-02-10T19:41:46.267Z,4.80
2019-02-10T19:44:32.043Z,4.80
2019-02-10T19:47:05.201Z,4.80
2019-02-10T19:49:56.109Z,4.80
2019-02-10T19:52:45.311Z,4.80
2019-02-10T19:55:31.521Z,4.80
2019-02-10T19:58:24.473Z,4.80
2019-02-10T20:01:03.769Z,4.80
2019-02-10T20:03:56.470Z,4.80
2019-02-10T20:06:49.189Z,4.80
2019-02-10T20:09:39.808Z,4.80
2019-02-10T20:12:25.785Z,4.70
2019-02-10T20:15:07.431Z,4.70
2019-02-10T20:18:13.180Z,4.80
2019-02-10T20:21:19.513Z,4.70
2019-02-10T20:24:05.259Z,4.70
2019-02-10T20:26:52.569Z,4.70
2019-02-10T20:29:29.661Z,4.60
2019-02-10T20:32:22.434Z,4.50
2019-02-10T20:35:03.795Z,4.50
2019-02-10T20:37:56.836Z,4.40
2019-02-10T20:40:57.715Z,4.30
2019-02-10T20:43:36.134Z,4.30
2019-02-10T20:46:23.136Z,4.30
2019-02-10T20:49:18.925Z,4.20
2019-02-10T20:51:56.452Z,4.20
2019-02-10T20:54:42.382Z,4.10
2019-02-10T20:57:22.844Z,4.00
2019-02-10T21:00:04.988Z,4.00
2019-02-10T21:02:54.997Z,4.00
2019-02-10T21:05:38.937Z,4.00
2019-02-10T21:08:28.969Z,3.90
2019-02-10T21:11:19.080Z,3.90
2019-02-10T21:13:52.782Z,3.80
2019-02-10T21:16:39.787Z,3.70
2019-02-10T21:19:16.827Z,3.70
2019-02-10T21:22:03.153Z,3.70
2019-02-10T21:25:05.371Z,3.70
2019-02-10T21:27:46.459Z,3.70
2019-02-10T21:30:30.611Z,3.70
2019-02-10T21:33:23.413Z,3.70
2019-02-10T21:36:16.458Z,3.60
2019-02-10T21:39:12.514Z,3.60
2019-02-10T21:42:02.387Z,3.60
2019-02-10T21:44:35.904Z,3.50
2019-02-10T21:47:16.997Z,3.60
2019-02-10T21:49:44.388Z,3.60
2019-02-10T21:52:11.829Z,3.50
2019-02-10T21:54:39.359Z,3.50
2019-02-10T21:57:06.702Z,3.50
2019-02-10T21:59:34.267Z,3.50
2019-02-10T22:02:01.775Z,3.50
2019-02-10T22:04:30.417Z,3.50
2019-02-10T22:06:57.871Z,3.50
2019-02-10T22:09:25.384Z,3.60
2019-02-10T22:11:52.863Z,3.50
2019-02-10T22:14:20.304Z,3.60
2019-02-10T22:16:47.710Z,3.60
2019-02-10T22:19:15.571Z,3.60
2019-02-10T22:21:42.923Z,3.70
2019-02-10T22:24:10.476Z,3.70
2019-02-10T22:26:37.994Z,3.70
2019-02-10T22:29:05.442Z,3.70
2019-02-10T22:31:33.323Z,3.70
2019-02-10T22:34:01.631Z,3.70
2019-02-10T22:36:29.101Z,3.80
2019-02-10T22:38:56.620Z,3.80
2019-02-10T22:41:24.107Z,3.80
2019-02-10T22:43:51.602Z,3.80
2019-02-10T22:46:19.112Z,3.80
2019-02-10T22:48:46.555Z,3.90
2019-02-10T22:51:14.085Z,3.90
2019-02-10T22:53:41.586Z,3.90
2019-02-10T22:56:09.164Z,3.90
2019-02-10T22:58:36.662Z,3.90
2019-02-10T23:01:05.456Z,3.90
2019-02-10T23:03:33.240Z,3.90
2019-02-10T23:06:00.715Z,3.90
2019-02-10T23:08:28.121Z,3.90
2019-02-10T23:10:56.175Z,3.90
2019-02-10T23:13:23.756Z,3.90
2019-02-10T23:15:51.119Z,4.00
2019-02-10T23:18:18.496Z,3.90
2019-02-10T23:20:46.029Z,4.00
2019-02-10T23:23:13.531Z,4.00
2019-02-10T23:25:41.153Z,4.00
2019-02-10T23:28:08.730Z,4.00
2019-02-10T23:30:36.271Z,4.10
2019-02-10T23:33:04.794Z,4.00
2019-02-10T23:35:32.489Z,4.00
2019-02-10T23:37:59.981Z,4.00
2019-02-10T23:40:27.420Z,4.00
2019-02-10T23:43:01.943Z,4.00
2019-02-10T23:45:24.757Z,4.00
2019-02-10T23:47:52.240Z,4.00
2019-02-10T23:50:19.711Z,4.00
2019-02-10T23:52:47.200Z,4.00
2019-02-10T23:55:14.787Z,4.00
2019-02-10T23:57:42.591Z,4.00
